sensor_id;sensor_type;location;lat;lon;timestamp;P1;durP1;ratioP1;P2;durP2;ratioP2
80215;SDS011;69532;37.974;23.708;2023-05-21T00:01:00;9.15;;;5.80;;
80215;SDS011;69532;37.974;23.708;2023-05-21T00:03:27;10.02;;;6.30;;
80215;SDS011;69532;37.974;23.708;2023-05-21T00:05:54;8.68;;;6.28;;
80215;SDS011;69532;37.974;23.708;2023-05-21T00:08:20;9.27;;;6.03;;
80215;SDS011;69532;37.974;23.708;2023-05-21T00:10:47;8.63;;;5.90;;
80215;SDS011;69532;37.974;23.708;2023-05-21T00:13:12;9.45;;;5.90;;
80215;SDS011;69532;37.974;23.708;2023-05-21T00:15:38;9.93;;;6.10;;
80215;SDS011;69532;37.974;23.708;2023-05-21T00:18:04;8.93;;;5.65;;
80215;SDS011;69532;37.974;23.708;2023-05-21T00:20:30;9.10;;;5.75;;
80215;SDS011;69532;37.974;23.708;2023-05-21T00:22:56;10.57;;;6.75;;
80215;SDS011;69532;37.974;23.708;2023-05-21T00:25:22;9.35;;;6.05;;
80215;SDS011;69532;37.974;23.708;2023-05-21T00:27:48;11.02;;;5.95;;
80215;SDS011;69532;37.974;23.708;2023-05-21T00:30:14;11.85;;;6.80;;
80215;SDS011;69532;37.974;23.708;2023-05-21T00:32:40;11.63;;;6.53;;
80215;SDS011;69532;37.974;23.708;2023-05-21T00:35:06;8.75;;;6.22;;
80215;SDS011;69532;37.974;23.708;2023-05-21T00:37:32;10.02;;;6.10;;
80215;SDS011;69532;37.974;23.708;2023-05-21T00:39:59;11.32;;;6.30;;
80215;SDS011;69532;37.974;23.708;2023-05-21T00:42:25;9.25;;;6.38;;
80215;SDS011;69532;37.974;23.708;2023-05-21T00:44:54;10.05;;;6.30;;
80215;SDS011;69532;37.974;23.708;2023-05-21T00:47:21;9.45;;;5.95;;
80215;SDS011;69532;37.974;23.708;2023-05-21T00:49:47;9.68;;;6.40;;
80215;SDS011;69532;37.974;23.708;2023-05-21T00:52:15;10.32;;;5.93;;
80215;SDS011;69532;37.974;23.708;2023-05-21T00:54:45;12.73;;;6.38;;
80215;SDS011;69532;37.974;23.708;2023-05-21T00:57:12;9.73;;;5.93;;
80215;SDS011;69532;37.974;23.708;2023-05-21T00:59:38;9.38;;;6.20;;
80215;SDS011;69532;37.974;23.708;2023-05-21T01:02:04;11.93;;;6.07;;
80215;SDS011;69532;37.974;23.708;2023-05-21T01:04:31;10.52;;;6.00;;
80215;SDS011;69532;37.974;23.708;2023-05-21T01:06:57;9.25;;;6.00;;
80215;SDS011;69532;37.974;23.708;2023-05-21T01:09:25;9.85;;;5.80;;
80215;SDS011;69532;37.974;23.708;2023-05-21T01:11:52;9.20;;;5.88;;
80215;SDS011;69532;37.974;23.708;2023-05-21T01:14:19;11.20;;;6.20;;
80215;SDS011;69532;37.974;23.708;2023-05-21T01:16:48;11.13;;;5.90;;
80215;SDS011;69532;37.974;23.708;2023-05-21T01:19:18;10.15;;;6.00;;
80215;SDS011;69532;37.974;23.708;2023-05-21T01:21:48;10.55;;;5.75;;
80215;SDS011;69532;37.974;23.708;2023-05-21T01:24:16;9.18;;;5.65;;
80215;SDS011;69532;37.974;23.708;2023-05-21T01:26:43;10.20;;;5.97;;
80215;SDS011;69532;37.974;23.708;2023-05-21T01:29:10;8.35;;;5.78;;
80215;SDS011;69532;37.974;23.708;2023-05-21T01:31:47;11.05;;;6.00;;
80215;SDS011;69532;37.974;23.708;2023-05-21T01:34:18;10.73;;;6.20;;
80215;SDS011;69532;37.974;23.708;2023-05-21T01:37:22;11.05;;;5.95;;
80215;SDS011;69532;37.974;23.708;2023-05-21T01:40:08;12.50;;;6.35;;
80215;SDS011;69532;37.974;23.708;2023-05-21T01:42:38;10.50;;;5.78;;
80215;SDS011;69532;37.974;23.708;2023-05-21T01:45:08;8.48;;;5.75;;
80215;SDS011;69532;37.974;23.708;2023-05-21T01:47:34;9.25;;;5.82;;
80215;SDS011;69532;37.974;23.708;2023-05-21T01:50:01;8.73;;;6.07;;
80215;SDS011;69532;37.974;23.708;2023-05-21T01:52:29;9.80;;;5.32;;
80215;SDS011;69532;37.974;23.708;2023-05-21T01:54:55;8.48;;;5.60;;
80215;SDS011;69532;37.974;23.708;2023-05-21T01:57:21;11.38;;;5.80;;
80215;SDS011;69532;37.974;23.708;2023-05-21T01:59:47;9.25;;;6.00;;
80215;SDS011;69532;37.974;23.708;2023-05-21T02:02:13;8.52;;;5.82;;
80215;SDS011;69532;37.974;23.708;2023-05-21T02:04:39;9.90;;;5.85;;
80215;SDS011;69532;37.974;23.708;2023-05-21T02:07:05;9.38;;;6.55;;
80215;SDS011;69532;37.974;23.708;2023-05-21T02:09:31;9.13;;;5.70;;
80215;SDS011;69532;37.974;23.708;2023-05-21T02:11:57;9.45;;;6.43;;
80215;SDS011;69532;37.974;23.708;2023-05-21T02:14:23;10.35;;;5.85;;
80215;SDS011;69532;37.974;23.708;2023-05-21T02:16:51;9.25;;;5.85;;
80215;SDS011;69532;37.974;23.708;2023-05-21T02:19:17;8.73;;;5.95;;
80215;SDS011;69532;37.974;23.708;2023-05-21T02:21:43;8.30;;;5.57;;
80215;SDS011;69532;37.974;23.708;2023-05-21T02:24:09;9.45;;;6.00;;
80215;SDS011;69532;37.974;23.708;2023-05-21T02:26:35;12.50;;;6.25;;
80215;SDS011;69532;37.974;23.708;2023-05-21T02:29:02;9.90;;;6.70;;
80215;SDS011;69532;37.974;23.708;2023-05-21T02:31:28;10.70;;;6.03;;
80215;SDS011;69532;37.974;23.708;2023-05-21T02:33:53;8.30;;;5.68;;
80215;SDS011;69532;37.974;23.708;2023-05-21T02:36:20;9.07;;;6.10;;
80215;SDS011;69532;37.974;23.708;2023-05-21T02:38:46;10.48;;;5.80;;
80215;SDS011;69532;37.974;23.708;2023-05-21T02:41:11;9.10;;;6.20;;
80215;SDS011;69532;37.974;23.708;2023-05-21T02:43:37;10.60;;;5.90;;
80215;SDS011;69532;37.974;23.708;2023-05-21T02:46:03;9.13;;;6.05;;
80215;SDS011;69532;37.974;23.708;2023-05-21T02:48:30;10.25;;;5.75;;
80215;SDS011;69532;37.974;23.708;2023-05-21T02:50:56;9.63;;;6.32;;
80215;SDS011;69532;37.974;23.708;2023-05-21T02:53:22;11.15;;;6.38;;
80215;SDS011;69532;37.974;23.708;2023-05-21T02:55:47;9.48;;;6.22;;
80215;SDS011;69532;37.974;23.708;2023-05-21T02:58:13;9.80;;;6.22;;
80215;SDS011;69532;37.974;23.708;2023-05-21T03:00:39;10.50;;;6.50;;
80215;SDS011;69532;37.974;23.708;2023-05-21T03:03:05;10.38;;;6.43;;
80215;SDS011;69532;37.974;23.708;2023-05-21T03:05:31;8.98;;;5.95;;
80215;SDS011;69532;37.974;23.708;2023-05-21T03:07:57;9.40;;;5.82;;
80215;SDS011;69532;37.974;23.708;2023-05-21T03:10:22;9.43;;;5.93;;
80215;SDS011;69532;37.974;23.708;2023-05-21T03:12:48;9.27;;;6.03;;
80215;SDS011;69532;37.974;23.708;2023-05-21T03:15:14;11.40;;;6.60;;
80215;SDS011;69532;37.974;23.708;2023-05-21T03:17:40;10.38;;;6.20;;
80215;SDS011;69532;37.974;23.708;2023-05-21T03:20:07;10.77;;;6.15;;
80215;SDS011;69532;37.974;23.708;2023-05-21T03:22:33;8.52;;;5.60;;
80215;SDS011;69532;37.974;23.708;2023-05-21T03:24:59;10.80;;;6.30;;
80215;SDS011;69532;37.974;23.708;2023-05-21T03:27:28;9.55;;;5.75;;
80215;SDS011;69532;37.974;23.708;2023-05-21T03:29:53;10.63;;;6.43;;
80215;SDS011;69532;37.974;23.708;2023-05-21T03:32:19;8.60;;;6.07;;
80215;SDS011;69532;37.974;23.708;2023-05-21T03:34:45;9.40;;;5.90;;
80215;SDS011;69532;37.974;23.708;2023-05-21T03:37:11;9.13;;;5.63;;
80215;SDS011;69532;37.974;23.708;2023-05-21T03:39:37;9.05;;;5.82;;
80215;SDS011;69532;37.974;23.708;2023-05-21T03:42:02;8.77;;;5.68;;
80215;SDS011;69532;37.974;23.708;2023-05-21T03:44:28;9.13;;;5.78;;
80215;SDS011;69532;37.974;23.708;2023-05-21T03:46:56;11.15;;;5.68;;
80215;SDS011;69532;37.974;23.708;2023-05-21T03:49:22;9.82;;;5.80;;
80215;SDS011;69532;37.974;23.708;2023-05-21T03:51:48;8.75;;;5.60;;
80215;SDS011;69532;37.974;23.708;2023-05-21T03:54:14;9.77;;;5.95;;
80215;SDS011;69532;37.974;23.708;2023-05-21T03:56:40;9.90;;;6.35;;
80215;SDS011;69532;37.974;23.708;2023-05-21T03:59:06;10.77;;;6.45;;
80215;SDS011;69532;37.974;23.708;2023-05-21T04:01:32;10.20;;;6.00;;
80215;SDS011;69532;37.974;23.708;2023-05-21T04:03:57;13.52;;;6.53;;
80215;SDS011;69532;37.974;23.708;2023-05-21T04:06:23;9.07;;;5.68;;
80215;SDS011;69532;37.974;23.708;2023-05-21T04:08:49;10.05;;;6.35;;
80215;SDS011;69532;37.974;23.708;2023-05-21T04:11:15;11.38;;;6.10;;
80215;SDS011;69532;37.974;23.708;2023-05-21T04:13:41;9.07;;;6.30;;
80215;SDS011;69532;37.974;23.708;2023-05-21T04:16:06;10.05;;;6.50;;
80215;SDS011;69532;37.974;23.708;2023-05-21T04:18:33;9.27;;;5.80;;
80215;SDS011;69532;37.974;23.708;2023-05-21T04:20:59;11.10;;;5.97;;
80215;SDS011;69532;37.974;23.708;2023-05-21T04:23:26;8.75;;;6.05;;
80215;SDS011;69532;37.974;23.708;2023-05-21T04:25:52;9.38;;;5.88;;
80215;SDS011;69532;37.974;23.708;2023-05-21T04:28:17;12.15;;;6.35;;
80215;SDS011;69532;37.974;23.708;2023-05-21T04:30:45;10.23;;;6.03;;
80215;SDS011;69532;37.974;23.708;2023-05-21T04:33:11;9.55;;;6.45;;
80215;SDS011;69532;37.974;23.708;2023-05-21T04:35:41;9.10;;;6.13;;
80215;SDS011;69532;37.974;23.708;2023-05-21T04:38:08;10.30;;;6.10;;
80215;SDS011;69532;37.974;23.708;2023-05-21T04:40:34;11.43;;;6.43;;
80215;SDS011;69532;37.974;23.708;2023-05-21T04:43:00;10.18;;;6.30;;
80215;SDS011;69532;37.974;23.708;2023-05-21T04:45:26;11.55;;;6.30;;
80215;SDS011;69532;37.974;23.708;2023-05-21T04:47:52;10.85;;;6.63;;
80215;SDS011;69532;37.974;23.708;2023-05-21T04:50:17;10.00;;;6.75;;
80215;SDS011;69532;37.974;23.708;2023-05-21T04:52:44;11.35;;;6.30;;
80215;SDS011;69532;37.974;23.708;2023-05-21T04:55:10;10.40;;;6.47;;
80215;SDS011;69532;37.974;23.708;2023-05-21T04:57:36;10.88;;;6.75;;
80215;SDS011;69532;37.974;23.708;2023-05-21T05:00:02;10.25;;;6.15;;
80215;SDS011;69532;37.974;23.708;2023-05-21T05:02:31;9.02;;;5.97;;
80215;SDS011;69532;37.974;23.708;2023-05-21T05:04:56;11.57;;;6.38;;
80215;SDS011;69532;37.974;23.708;2023-05-21T05:07:23;10.88;;;6.07;;
80215;SDS011;69532;37.974;23.708;2023-05-21T05:09:49;9.75;;;6.00;;
80215;SDS011;69532;37.974;23.708;2023-05-21T05:12:15;9.00;;;5.95;;
80215;SDS011;69532;37.974;23.708;2023-05-21T05:14:41;9.32;;;6.30;;
80215;SDS011;69532;37.974;23.708;2023-05-21T05:17:06;11.13;;;6.32;;
80215;SDS011;69532;37.974;23.708;2023-05-21T05:19:34;9.45;;;6.53;;
80215;SDS011;69532;37.974;23.708;2023-05-21T05:22:00;10.35;;;5.88;;
80215;SDS011;69532;37.974;23.708;2023-05-21T05:24:26;9.00;;;6.13;;
80215;SDS011;69532;37.974;23.708;2023-05-21T05:26:51;9.00;;;5.70;;
80215;SDS011;69532;37.974;23.708;2023-05-21T05:29:17;9.38;;;5.88;;
80215;SDS011;69532;37.974;23.708;2023-05-21T05:31:43;10.13;;;6.30;;
80215;SDS011;69532;37.974;23.708;2023-05-21T05:34:08;8.98;;;5.93;;
80215;SDS011;69532;37.974;23.708;2023-05-21T05:36:34;9.68;;;5.60;;
80215;SDS011;69532;37.974;23.708;2023-05-21T05:39:00;9.75;;;6.00;;
80215;SDS011;69532;37.974;23.708;2023-05-21T05:41:25;9.38;;;6.15;;
80215;SDS011;69532;37.974;23.708;2023-05-21T05:43:51;9.35;;;5.55;;
80215;SDS011;69532;37.974;23.708;2023-05-21T05:46:17;9.05;;;5.57;;
80215;SDS011;69532;37.974;23.708;2023-05-21T05:48:42;11.35;;;5.82;;
80215;SDS011;69532;37.974;23.708;2023-05-21T05:51:08;8.60;;;6.07;;
80215;SDS011;69532;37.974;23.708;2023-05-21T05:53:35;10.75;;;5.82;;
80215;SDS011;69532;37.974;23.708;2023-05-21T05:56:01;10.23;;;6.05;;
80215;SDS011;69532;37.974;23.708;2023-05-21T05:58:28;10.00;;;6.30;;
80215;SDS011;69532;37.974;23.708;2023-05-21T06:00:55;9.02;;;5.70;;
80215;SDS011;69532;37.974;23.708;2023-05-21T06:03:20;9.27;;;5.45;;
80215;SDS011;69532;37.974;23.708;2023-05-21T06:05:46;9.55;;;5.75;;
80215;SDS011;69532;37.974;23.708;2023-05-21T06:08:12;7.75;;;5.13;;
80215;SDS011;69532;37.974;23.708;2023-05-21T06:10:37;8.75;;;5.45;;
80215;SDS011;69532;37.974;23.708;2023-05-21T06:13:03;9.73;;;6.10;;
80215;SDS011;69532;37.974;23.708;2023-05-21T06:15:29;10.27;;;5.63;;
80215;SDS011;69532;37.974;23.708;2023-05-21T06:17:54;8.73;;;5.82;;
80215;SDS011;69532;37.974;23.708;2023-05-21T06:20:20;8.13;;;5.22;;
80215;SDS011;69532;37.974;23.708;2023-05-21T06:22:46;8.02;;;5.45;;
80215;SDS011;69532;37.974;23.708;2023-05-21T06:25:11;9.40;;;5.68;;
80215;SDS011;69532;37.974;23.708;2023-05-21T06:27:38;10.25;;;6.30;;
80215;SDS011;69532;37.974;23.708;2023-05-21T06:30:04;8.35;;;5.65;;
80215;SDS011;69532;37.974;23.708;2023-05-21T06:32:31;8.55;;;5.97;;
80215;SDS011;69532;37.974;23.708;2023-05-21T06:34:57;8.30;;;5.50;;
80215;SDS011;69532;37.974;23.708;2023-05-21T06:37:22;8.43;;;5.63;;
80215;SDS011;69532;37.974;23.708;2023-05-21T06:39:48;8.60;;;5.68;;
80215;SDS011;69532;37.974;23.708;2023-05-21T06:42:14;9.10;;;5.63;;
80215;SDS011;69532;37.974;23.708;2023-05-21T06:44:40;7.95;;;5.30;;
80215;SDS011;69532;37.974;23.708;2023-05-21T06:47:06;10.25;;;5.97;;
80215;SDS011;69532;37.974;23.708;2023-05-21T06:49:31;9.15;;;5.70;;
80215;SDS011;69532;37.974;23.708;2023-05-21T06:51:57;8.38;;;5.80;;
80215;SDS011;69532;37.974;23.708;2023-05-21T06:54:23;9.85;;;6.00;;
80215;SDS011;69532;37.974;23.708;2023-05-21T06:56:48;8.32;;;5.45;;
80215;SDS011;69532;37.974;23.708;2023-05-21T06:59:14;10.05;;;5.32;;
80215;SDS011;69532;37.974;23.708;2023-05-21T07:01:40;8.07;;;5.70;;
80215;SDS011;69532;37.974;23.708;2023-05-21T07:04:06;7.25;;;5.43;;
80215;SDS011;69532;37.974;23.708;2023-05-21T07:06:33;8.98;;;5.40;;
80215;SDS011;69532;37.974;23.708;2023-05-21T07:08:59;8.32;;;5.45;;
80215;SDS011;69532;37.974;23.708;2023-05-21T07:11:25;11.77;;;5.57;;
80215;SDS011;69532;37.974;23.708;2023-05-21T07:13:53;7.93;;;5.13;;
80215;SDS011;69532;37.974;23.708;2023-05-21T07:16:19;8.52;;;5.32;;
80215;SDS011;69532;37.974;23.708;2023-05-21T07:18:45;7.28;;;5.30;;
80215;SDS011;69532;37.974;23.708;2023-05-21T07:21:11;8.80;;;5.45;;
80215;SDS011;69532;37.974;23.708;2023-05-21T07:23:36;9.25;;;5.65;;
80215;SDS011;69532;37.974;23.708;2023-05-21T07:26:02;8.85;;;5.32;;
80215;SDS011;69532;37.974;23.708;2023-05-21T07:28:28;8.73;;;5.85;;
80215;SDS011;69532;37.974;23.708;2023-05-21T07:30:53;7.63;;;5.72;;
80215;SDS011;69532;37.974;23.708;2023-05-21T07:33:19;9.13;;;5.75;;
80215;SDS011;69532;37.974;23.708;2023-05-21T07:35:46;8.43;;;5.28;;
80215;SDS011;69532;37.974;23.708;2023-05-21T07:38:12;8.40;;;5.70;;
80215;SDS011;69532;37.974;23.708;2023-05-21T07:40:38;8.68;;;5.43;;
80215;SDS011;69532;37.974;23.708;2023-05-21T07:43:04;7.75;;;5.32;;
80215;SDS011;69532;37.974;23.708;2023-05-21T07:45:29;8.15;;;5.32;;
80215;SDS011;69532;37.974;23.708;2023-05-21T07:47:55;9.20;;;5.75;;
80215;SDS011;69532;37.974;23.708;2023-05-21T07:50:21;8.52;;;5.40;;
80215;SDS011;69532;37.974;23.708;2023-05-21T07:52:46;10.32;;;5.50;;
80215;SDS011;69532;37.974;23.708;2023-05-21T07:55:12;8.10;;;5.30;;
80215;SDS011;69532;37.974;23.708;2023-05-21T07:57:38;8.13;;;5.30;;
80215;SDS011;69532;37.974;23.708;2023-05-21T08:00:04;8.55;;;4.95;;
80215;SDS011;69532;37.974;23.708;2023-05-21T08:02:33;7.47;;;5.07;;
80215;SDS011;69532;37.974;23.708;2023-05-21T08:05:00;11.68;;;5.38;;
80215;SDS011;69532;37.974;23.708;2023-05-21T08:07:25;9.38;;;5.32;;
80215;SDS011;69532;37.974;23.708;2023-05-21T08:09:51;8.20;;;5.07;;
80215;SDS011;69532;37.974;23.708;2023-05-21T08:12:20;12.45;;;5.25;;
80215;SDS011;69532;37.974;23.708;2023-05-21T08:14:46;9.70;;;5.20;;
80215;SDS011;69532;37.974;23.708;2023-05-21T08:17:12;9.73;;;5.43;;
80215;SDS011;69532;37.974;23.708;2023-05-21T08:19:37;8.23;;;5.43;;
80215;SDS011;69532;37.974;23.708;2023-05-21T08:22:03;9.52;;;5.60;;
80215;SDS011;69532;37.974;23.708;2023-05-21T08:24:31;11.15;;;5.13;;
80215;SDS011;69532;37.974;23.708;2023-05-21T08:27:00;9.32;;;5.57;;
80215;SDS011;69532;37.974;23.708;2023-05-21T08:29:26;9.80;;;5.50;;
80215;SDS011;69532;37.974;23.708;2023-05-21T08:31:52;10.15;;;5.25;;
80215;SDS011;69532;37.974;23.708;2023-05-21T08:34:17;10.32;;;5.32;;
80215;SDS011;69532;37.974;23.708;2023-05-21T08:36:43;10.75;;;5.47;;
80215;SDS011;69532;37.974;23.708;2023-05-21T08:39:11;8.70;;;5.80;;
80215;SDS011;69532;37.974;23.708;2023-05-21T08:41:37;11.27;;;5.45;;
80215;SDS011;69532;37.974;23.708;2023-05-21T08:44:06;9.32;;;5.75;;
80215;SDS011;69532;37.974;23.708;2023-05-21T08:46:35;9.10;;;5.60;;
80215;SDS011;69532;37.974;23.708;2023-05-21T08:49:05;8.15;;;5.00;;
80215;SDS011;69532;37.974;23.708;2023-05-21T08:51:33;8.93;;;5.38;;
80215;SDS011;69532;37.974;23.708;2023-05-21T08:53:59;9.20;;;5.18;;
80215;SDS011;69532;37.974;23.708;2023-05-21T08:56:26;8.93;;;5.85;;
80215;SDS011;69532;37.974;23.708;2023-05-21T08:58:55;9.85;;;5.60;;
80215;SDS011;69532;37.974;23.708;2023-05-21T09:01:21;8.05;;;5.38;;
80215;SDS011;69532;37.974;23.708;2023-05-21T09:03:47;10.35;;;5.95;;
80215;SDS011;69532;37.974;23.708;2023-05-21T09:06:16;9.88;;;5.70;;
80215;SDS011;69532;37.974;23.708;2023-05-21T09:08:42;11.27;;;5.43;;
80215;SDS011;69532;37.974;23.708;2023-05-21T09:11:10;8.38;;;5.28;;
80215;SDS011;69532;37.974;23.708;2023-05-21T09:13:36;8.60;;;5.28;;
80215;SDS011;69532;37.974;23.708;2023-05-21T09:16:04;9.80;;;5.75;;
80215;SDS011;69532;37.974;23.708;2023-05-21T09:18:30;11.73;;;6.15;;
80215;SDS011;69532;37.974;23.708;2023-05-21T09:20:56;8.13;;;5.70;;
80215;SDS011;69532;37.974;23.708;2023-05-21T09:23:22;7.90;;;5.65;;
80215;SDS011;69532;37.974;23.708;2023-05-21T09:25:48;9.23;;;5.75;;
80215;SDS011;69532;37.974;23.708;2023-05-21T09:28:18;11.10;;;5.65;;
80215;SDS011;69532;37.974;23.708;2023-05-21T09:30:47;9.07;;;6.03;;
80215;SDS011;69532;37.974;23.708;2023-05-21T09:33:24;10.98;;;6.15;;
80215;SDS011;69532;37.974;23.708;2023-05-21T09:35:50;9.73;;;5.93;;
80215;SDS011;69532;37.974;23.708;2023-05-21T09:38:16;10.93;;;5.95;;
80215;SDS011;69532;37.974;23.708;2023-05-21T09:40:42;12.15;;;6.07;;
80215;SDS011;69532;37.974;23.708;2023-05-21T09:43:12;12.10;;;6.60;;
80215;SDS011;69532;37.974;23.708;2023-05-21T09:45:50;9.55;;;6.00;;
80215;SDS011;69532;37.974;23.708;2023-05-21T09:48:36;12.73;;;6.10;;
80215;SDS011;69532;37.974;23.708;2023-05-21T09:51:13;10.20;;;5.97;;
80215;SDS011;69532;37.974;23.708;2023-05-21T09:53:44;11.52;;;6.22;;
80215;SDS011;69532;37.974;23.708;2023-05-21T09:56:20;9.07;;;5.63;;
80215;SDS011;69532;37.974;23.708;2023-05-21T09:58:47;10.48;;;6.00;;
80215;SDS011;69532;37.974;23.708;2023-05-21T10:01:15;8.38;;;5.97;;
80215;SDS011;69532;37.974;23.708;2023-05-21T10:03:43;10.23;;;6.32;;
80215;SDS011;69532;37.974;23.708;2023-05-21T10:06:14;10.40;;;5.85;;
80215;SDS011;69532;37.974;23.708;2023-05-21T10:08:43;8.90;;;5.80;;
80215;SDS011;69532;37.974;23.708;2023-05-21T10:11:11;10.60;;;6.00;;
80215;SDS011;69532;37.974;23.708;2023-05-21T10:13:38;9.25;;;5.85;;
80215;SDS011;69532;37.974;23.708;2023-05-21T10:16:07;9.68;;;5.97;;
80215;SDS011;69532;37.974;23.708;2023-05-21T10:18:33;10.93;;;6.43;;
80215;SDS011;69532;37.974;23.708;2023-05-21T10:21:00;7.88;;;5.78;;
80215;SDS011;69532;37.974;23.708;2023-05-21T10:23:26;10.23;;;6.13;;
80215;SDS011;69532;37.974;23.708;2023-05-21T10:25:54;9.55;;;6.63;;
80215;SDS011;69532;37.974;23.708;2023-05-21T10:28:21;7.55;;;5.72;;
80215;SDS011;69532;37.974;23.708;2023-05-21T10:30:48;9.93;;;5.68;;
80215;SDS011;69532;37.974;23.708;2023-05-21T10:33:16;9.95;;;6.30;;
80215;SDS011;69532;37.974;23.708;2023-05-21T10:35:43;11.18;;;6.32;;
80215;SDS011;69532;37.974;23.708;2023-05-21T10:38:10;9.60;;;6.20;;
80215;SDS011;69532;37.974;23.708;2023-05-21T10:40:38;9.35;;;6.38;;
80215;SDS011;69532;37.974;23.708;2023-05-21T10:43:40;11.18;;;6.20;;
80215;SDS011;69532;37.974;23.708;2023-05-21T10:56:41;11.40;;;6.20;;
80215;SDS011;69532;37.974;23.708;2023-05-21T10:59:46;9.77;;;6.93;;
80215;SDS011;69532;37.974;23.708;2023-05-21T11:02:13;10.55;;;7.07;;
80215;SDS011;69532;37.974;23.708;2023-05-21T11:04:44;16.27;;;10.38;;
80215;SDS011;69532;37.974;23.708;2023-05-21T11:07:13;12.52;;;9.18;;
80215;SDS011;69532;37.974;23.708;2023-05-21T11:09:48;16.88;;;11.50;;
80215;SDS011;69532;37.974;23.708;2023-05-21T11:12:14;19.20;;;13.75;;
80215;SDS011;69532;37.974;23.708;2023-05-21T11:14:54;42.28;;;31.30;;
80215;SDS011;69532;37.974;23.708;2023-05-21T11:17:40;37.25;;;27.70;;
80215;SDS011;69532;37.974;23.708;2023-05-21T11:20:12;26.60;;;20.98;;
80215;SDS011;69532;37.974;23.708;2023-05-21T11:22:38;27.65;;;20.65;;
80215;SDS011;69532;37.974;23.708;2023-05-21T11:25:04;24.67;;;18.33;;
80215;SDS011;69532;37.974;23.708;2023-05-21T11:32:38;18.35;;;12.02;;
80215;SDS011;69532;37.974;23.708;2023-05-21T11:35:26;17.10;;;10.88;;
80215;SDS011;69532;37.974;23.708;2023-05-21T11:37:52;17.13;;;11.35;;
80215;SDS011;69532;37.974;23.708;2023-05-21T11:40:19;15.63;;;10.82;;
80215;SDS011;69532;37.974;23.708;2023-05-21T11:42:50;15.48;;;10.32;;
80215;SDS011;69532;37.974;23.708;2023-05-21T11:45:20;14.70;;;9.88;;
80215;SDS011;69532;37.974;23.708;2023-05-21T11:47:52;13.77;;;8.63;;
80215;SDS011;69532;37.974;23.708;2023-05-21T11:50:20;13.13;;;8.93;;
80215;SDS011;69532;37.974;23.708;2023-05-21T11:52:45;15.38;;;8.52;;
80215;SDS011;69532;37.974;23.708;2023-05-21T11:55:12;15.02;;;7.85;;
80215;SDS011;69532;37.974;23.708;2023-05-21T11:57:40;12.70;;;8.18;;
80215;SDS011;69532;37.974;23.708;2023-05-21T12:00:12;13.57;;;8.30;;
80215;SDS011;69532;37.974;23.708;2023-05-21T12:02:43;12.88;;;8.35;;
80215;SDS011;69532;37.974;23.708;2023-05-21T12:05:14;13.32;;;8.10;;
80215;SDS011;69532;37.974;23.708;2023-05-21T12:07:39;12.35;;;8.10;;
80215;SDS011;69532;37.974;23.708;2023-05-21T12:10:05;10.95;;;8.00;;
80215;SDS011;69532;37.974;23.708;2023-05-21T12:12:31;13.60;;;8.43;;
80215;SDS011;69532;37.974;23.708;2023-05-21T12:14:57;13.43;;;8.55;;
80215;SDS011;69532;37.974;23.708;2023-05-21T12:17:24;14.05;;;8.25;;
80215;SDS011;69532;37.974;23.708;2023-05-21T12:19:51;13.45;;;8.35;;
80215;SDS011;69532;37.974;23.708;2023-05-21T12:22:21;12.40;;;7.95;;
80215;SDS011;69532;37.974;23.708;2023-05-21T12:24:48;13.10;;;8.30;;
80215;SDS011;69532;37.974;23.708;2023-05-21T12:27:15;14.02;;;7.90;;
80215;SDS011;69532;37.974;23.708;2023-05-21T12:29:43;12.05;;;8.10;;
80215;SDS011;69532;37.974;23.708;2023-05-21T12:32:11;14.05;;;8.27;;
80215;SDS011;69532;37.974;23.708;2023-05-21T12:34:41;11.93;;;7.95;;
80215;SDS011;69532;37.974;23.708;2023-05-21T12:37:09;12.73;;;8.30;;
80215;SDS011;69532;37.974;23.708;2023-05-21T12:39:40;9.93;;;7.00;;
80215;SDS011;69532;37.974;23.708;2023-05-21T12:42:08;13.98;;;7.95;;
80215;SDS011;69532;37.974;23.708;2023-05-21T12:44:34;14.02;;;8.07;;
80215;SDS011;69532;37.974;23.708;2023-05-21T12:47:00;13.60;;;7.90;;
80215;SDS011;69532;37.974;23.708;2023-05-21T12:49:33;13.70;;;8.55;;
80215;SDS011;69532;37.974;23.708;2023-05-21T12:52:10;11.15;;;7.70;;
80215;SDS011;69532;37.974;23.708;2023-05-21T12:54:40;12.07;;;7.43;;
80215;SDS011;69532;37.974;23.708;2023-05-21T12:57:17;12.35;;;7.47;;
80215;SDS011;69532;37.974;23.708;2023-05-21T12:59:45;14.25;;;7.65;;
80215;SDS011;69532;37.974;23.708;2023-05-21T13:02:15;12.68;;;8.02;;
80215;SDS011;69532;37.974;23.708;2023-05-21T13:04:43;12.55;;;7.90;;
80215;SDS011;69532;37.974;23.708;2023-05-21T13:07:09;13.00;;;7.30;;
80215;SDS011;69532;37.974;23.708;2023-05-21T13:09:35;13.05;;;7.82;;
80215;SDS011;69532;37.974;23.708;2023-05-21T13:12:01;13.38;;;7.00;;
80215;SDS011;69532;37.974;23.708;2023-05-21T13:14:26;15.82;;;7.90;;
80215;SDS011;69532;37.974;23.708;2023-05-21T13:16:52;11.52;;;7.43;;
80215;SDS011;69532;37.974;23.708;2023-05-21T13:19:18;11.30;;;7.70;;
80215;SDS011;69532;37.974;23.708;2023-05-21T13:21:43;13.68;;;7.47;;
80215;SDS011;69532;37.974;23.708;2023-05-21T13:24:09;9.63;;;7.22;;
80215;SDS011;69532;37.974;23.708;2023-05-21T13:26:35;12.70;;;7.88;;
80215;SDS011;69532;37.974;23.708;2023-05-21T13:29:00;12.38;;;7.50;;
80215;SDS011;69532;37.974;23.708;2023-05-21T13:31:26;12.65;;;7.55;;
80215;SDS011;69532;37.974;23.708;2023-05-21T13:33:52;12.50;;;7.10;;
80215;SDS011;69532;37.974;23.708;2023-05-21T13:36:18;14.00;;;7.70;;
80215;SDS011;69532;37.974;23.708;2023-05-21T13:38:43;12.13;;;6.93;;
80215;SDS011;69532;37.974;23.708;2023-05-21T13:41:09;14.05;;;7.18;;
80215;SDS011;69532;37.974;23.708;2023-05-21T13:43:35;10.30;;;6.78;;
80215;SDS011;69532;37.974;23.708;2023-05-21T13:46:01;11.30;;;7.13;;
80215;SDS011;69532;37.974;23.708;2023-05-21T13:48:27;13.43;;;7.30;;
80215;SDS011;69532;37.974;23.708;2023-05-21T13:50:53;12.98;;;7.30;;
80215;SDS011;69532;37.974;23.708;2023-05-21T13:53:19;10.73;;;7.03;;
80215;SDS011;69532;37.974;23.708;2023-05-21T13:55:45;11.75;;;6.90;;
80215;SDS011;69532;37.974;23.708;2023-05-21T13:58:11;11.57;;;6.60;;
80215;SDS011;69532;37.974;23.708;2023-05-21T14:00:36;12.60;;;7.28;;
80215;SDS011;69532;37.974;23.708;2023-05-21T14:03:04;13.93;;;7.05;;
80215;SDS011;69532;37.974;23.708;2023-05-21T14:05:31;13.02;;;7.03;;
80215;SDS011;69532;37.974;23.708;2023-05-21T14:07:57;12.82;;;7.22;;
80215;SDS011;69532;37.974;23.708;2023-05-21T14:10:23;11.38;;;6.82;;
80215;SDS011;69532;37.974;23.708;2023-05-21T14:12:48;11.40;;;6.65;;
80215;SDS011;69532;37.974;23.708;2023-05-21T14:15:14;15.02;;;6.72;;
80215;SDS011;69532;37.974;23.708;2023-05-21T14:17:41;10.30;;;6.95;;
80215;SDS011;69532;37.974;23.708;2023-05-21T14:20:07;9.80;;;6.32;;
80215;SDS011;69532;37.974;23.708;2023-05-21T14:22:33;12.95;;;7.00;;
80215;SDS011;69532;37.974;23.708;2023-05-21T14:24:59;11.43;;;6.88;;
80215;SDS011;69532;37.974;23.708;2023-05-21T14:27:25;11.55;;;6.32;;
80215;SDS011;69532;37.974;23.708;2023-05-21T14:29:50;10.95;;;6.53;;
80215;SDS011;69532;37.974;23.708;2023-05-21T14:32:16;11.50;;;6.85;;
80215;SDS011;69532;37.974;23.708;2023-05-21T14:34:43;14.10;;;7.22;;
80215;SDS011;69532;37.974;23.708;2023-05-21T14:37:08;9.18;;;6.13;;
80215;SDS011;69532;37.974;23.708;2023-05-21T14:39:34;10.65;;;6.55;;
80215;SDS011;69532;37.974;23.708;2023-05-21T14:42:01;10.43;;;6.10;;
80215;SDS011;69532;37.974;23.708;2023-05-21T14:44:28;10.13;;;6.25;;